Merna, Nebraska
Current Conditions -  °F | °C
As of 5:53 PM on Thursday 18 Dec 2014 (Local Time) from KBBW Reporting Station
Haze Haze  
Wind Chill: 23°   Ceiling: 900
Heat Index: 30°   Visibility: 6mi
Dew Point: 26°   Wind: 7mph
Humidity: 85%   Direction: 240°WSW
Pressure: 30.09"   Gusts: NA
Location:  41.48°N, 99.76°W
Report Text: KBBW 182353Z AUTO 24006KT 6SM BR OVC009 M01/M03 A3009 RMK AO2 SLP219 T10111033 11011 21028 52004
Loading
Personal Weather Stations






























Interactive Weather Map New forecast layout! Learn more

10-Day Weather Forecast

Advertisements
Track Severe Weather on mobile